createdAt,value
2018-03-23T00:00:00.173Z,30.50
2018-03-23T00:01:00.178Z,34.80
2018-03-23T00:02:00.181Z,33.50
2018-03-23T00:03:00.179Z,35.20
2018-03-23T00:04:01.181Z,37.60
2018-03-23T00:05:00.181Z,37.90
2018-03-23T00:06:00.185Z,34.20
2018-03-23T00:07:00.193Z,31.80
2018-03-23T00:08:00.199Z,32.80
2018-03-23T00:09:00.197Z,32.10
2018-03-23T00:10:00.201Z,38.10
2018-03-23T00:11:00.199Z,31.30
2018-03-23T00:12:01.224Z,38.80
2018-03-23T00:13:00.218Z,33.40
2018-03-23T00:14:00.213Z,32.50
2018-03-23T00:15:00.207Z,37.70
2018-03-23T00:16:00.217Z,40.20
2018-03-23T00:17:00.209Z,37.40
2018-03-23T00:18:00.222Z,39.40
2018-03-23T00:19:00.237Z,35.90
2018-03-23T00:20:00.229Z,39.30
2018-03-23T00:21:00.233Z,38.20
2018-03-23T00:22:00.238Z,38.00
2018-03-23T00:23:00.252Z,45.50
2018-03-23T00:24:00.233Z,42.90
2018-03-23T00:25:00.238Z,48.90
2018-03-23T00:26:00.236Z,40.30
2018-03-23T00:27:00.241Z,45.80
2018-03-23T00:28:00.252Z,43.70
2018-03-23T00:29:01.255Z,44.60
2018-03-23T00:30:00.253Z,44.30
2018-03-23T00:31:00.266Z,41.00
2018-03-23T00:32:00.253Z,45.30
2018-03-23T00:33:00.260Z,42.90
2018-03-23T00:34:00.260Z,39.30
2018-03-23T00:35:00.272Z,43.80
2018-03-23T00:36:00.265Z,41.90
2018-03-23T00:37:00.284Z,48.80
2018-03-23T00:38:00.267Z,46.70
2018-03-23T00:39:00.278Z,48.90
2018-03-23T00:40:00.280Z,47.00
2018-03-23T00:41:00.293Z,43.40
2018-03-23T00:42:00.285Z,44.90
2018-03-23T00:43:00.299Z,47.60
2018-03-23T00:44:00.290Z,51.50
2018-03-23T00:45:00.302Z,48.10
2018-03-23T00:46:00.299Z,47.90
2018-03-23T00:47:00.308Z,44.20
2018-03-23T00:48:00.312Z,47.60
2018-03-23T00:49:00.310Z,49.00
2018-03-23T00:50:00.310Z,48.80
2018-03-23T00:51:00.323Z,53.80
2018-03-23T00:52:00.308Z,52.80
2018-03-23T00:53:02.330Z,50.10
2018-03-23T00:54:00.316Z,53.70
2018-03-23T00:55:01.332Z,59.00
2018-03-23T00:56:00.329Z,53.90
2018-03-23T00:57:00.327Z,61.50
2018-03-23T00:58:00.330Z,61.30
2018-03-23T00:59:00.335Z,68.10
2018-03-23T01:00:00.330Z,60.90
2018-03-23T01:01:00.337Z,55.00
2018-03-23T01:02:00.356Z,59.60
2018-03-23T01:03:00.350Z,61.50
2018-03-23T01:04:00.349Z,61.70
2018-03-23T01:05:00.355Z,59.10
2018-03-23T01:06:00.361Z,67.40
2018-03-23T01:07:00.377Z,66.50
2018-03-23T01:08:00.360Z,65.00
2018-03-23T01:09:00.378Z,70.20
2018-03-23T01:10:00.363Z,65.80
2018-03-23T01:11:00.381Z,68.10
2018-03-23T01:12:00.362Z,72.70
2018-03-23T01:13:00.376Z,64.80
2018-03-23T01:14:00.368Z,75.90
2018-03-23T01:15:00.378Z,75.00
2018-03-23T01:16:00.379Z,68.00
2018-03-23T01:17:00.389Z,69.10
2018-03-23T01:18:00.386Z,78.60
2018-03-23T01:19:00.385Z,71.00
2018-03-23T01:20:00.389Z,69.20
2018-03-23T01:21:00.392Z,73.40
2018-03-23T01:22:00.398Z,79.10
2018-03-23T01:23:00.405Z,83.00
2018-03-23T01:24:00.396Z,73.20
2018-03-23T01:25:00.404Z,76.30
2018-03-23T01:26:00.405Z,76.50
2018-03-23T01:27:00.408Z,73.00
2018-03-23T01:28:00.409Z,73.20
2018-03-23T01:29:00.418Z,79.50
2018-03-23T01:30:00.423Z,72.90
2018-03-23T01:31:00.425Z,74.20
2018-03-23T01:32:00.431Z,78.60
2018-03-23T01:33:00.432Z,73.90
2018-03-23T01:34:00.440Z,77.80
2018-03-23T01:35:00.435Z,74.40
2018-03-23T01:36:00.431Z,67.00
2018-03-23T01:37:00.457Z,67.40
2018-03-23T01:38:00.438Z,68.20
2018-03-23T01:39:00.463Z,69.90
2018-03-23T01:40:00.440Z,67.30
2018-03-23T01:41:01.508Z,66.80
2018-03-23T01:42:00.453Z,65.60
2018-03-23T01:43:00.456Z,64.90
2018-03-23T01:44:00.447Z,64.40
2018-03-23T01:45:00.464Z,53.90
2018-03-23T01:46:00.459Z,66.30
2018-03-23T01:47:01.470Z,59.40
2018-03-23T01:48:00.471Z,56.10
2018-03-23T01:49:01.473Z,64.20
2018-03-23T01:50:00.469Z,53.70
2018-03-23T01:51:00.486Z,57.70
2018-03-23T01:52:00.473Z,56.00
2018-03-23T01:53:00.481Z,62.10
2018-03-23T01:54:00.512Z,67.40
2018-03-23T01:55:01.503Z,64.70
2018-03-23T01:56:00.491Z,63.80
2018-03-23T01:57:01.514Z,67.20
2018-03-23T01:58:00.493Z,57.40
2018-03-23T01:59:00.498Z,59.70
2018-03-23T02:00:00.497Z,65.50
2018-03-23T02:01:00.512Z,61.90
2018-03-23T02:02:00.509Z,64.00
2018-03-23T02:03:00.523Z,63.70
2018-03-23T02:04:00.523Z,62.20
2018-03-23T02:05:01.513Z,60.70
2018-03-23T02:06:00.516Z,63.20
2018-03-23T02:07:00.528Z,61.00
2018-03-23T02:08:00.516Z,58.10
2018-03-23T02:09:00.527Z,56.60
2018-03-23T02:10:00.524Z,63.80
2018-03-23T02:11:00.543Z,65.50
2018-03-23T02:12:00.531Z,65.70
2018-03-23T02:13:00.538Z,66.40
2018-03-23T02:14:00.546Z,67.00
2018-03-23T02:15:00.538Z,61.50
2018-03-23T02:16:00.555Z,70.40
2018-03-23T02:17:00.549Z,61.40
2018-03-23T02:18:00.568Z,66.70
2018-03-23T02:19:00.551Z,62.80
2018-03-23T02:20:00.550Z,67.50
2018-03-23T02:21:00.562Z,66.50
2018-03-23T02:22:00.561Z,65.50
2018-03-23T02:23:01.577Z,67.80
2018-03-23T02:24:00.568Z,63.60
2018-03-23T02:25:00.570Z,65.80
2018-03-23T02:26:00.571Z,69.00
2018-03-23T02:27:00.575Z,68.20
2018-03-23T02:28:00.573Z,62.00
2018-03-23T02:29:00.582Z,61.30
2018-03-23T02:30:00.592Z,68.20
2018-03-23T02:31:00.595Z,68.70
2018-03-23T02:32:00.579Z,66.60
2018-03-23T02:33:00.588Z,68.10
2018-03-23T02:34:00.590Z,73.80
2018-03-23T02:35:00.598Z,70.30
2018-03-23T02:36:00.599Z,69.70
2018-03-23T02:37:00.600Z,70.80
2018-03-23T02:38:00.601Z,63.20
2018-03-23T02:39:00.605Z,72.30
2018-03-23T02:40:00.607Z,74.40
2018-03-23T02:41:00.613Z,76.90
2018-03-23T02:42:00.619Z,73.80
2018-03-23T02:43:01.622Z,67.50
2018-03-23T02:44:00.623Z,76.90
2018-03-23T02:45:00.629Z,73.20
2018-03-23T02:46:00.622Z,80.30
2018-03-23T02:47:00.630Z,69.00
2018-03-23T02:48:00.635Z,78.40
2018-03-23T02:49:00.635Z,79.20
2018-03-23T02:50:00.635Z,70.90
2018-03-23T02:51:00.640Z,74.50
2018-03-23T02:52:00.645Z,80.80
2018-03-23T02:53:00.641Z,77.40
2018-03-23T02:54:00.653Z,69.10
2018-03-23T02:55:00.680Z,77.40
2018-03-23T02:56:00.642Z,78.20
2018-03-23T02:57:00.667Z,75.80
2018-03-23T02:58:00.658Z,76.30
2018-03-23T02:59:00.666Z,79.70
2018-03-23T03:00:00.658Z,84.40
2018-03-23T03:01:00.664Z,79.00
2018-03-23T03:02:00.671Z,83.30
2018-03-23T03:03:00.673Z,79.40
2018-03-23T03:04:00.670Z,87.60
2018-03-23T03:05:00.679Z,82.90
2018-03-23T03:06:00.686Z,85.10
2018-03-23T03:07:00.683Z,81.40
2018-03-23T03:08:00.697Z,76.70
2018-03-23T03:09:00.694Z,84.00
2018-03-23T03:10:00.681Z,83.20
2018-03-23T03:11:00.714Z,89.10
2018-03-23T03:12:00.685Z,82.60
2018-03-23T03:13:00.702Z,86.30
2018-03-23T03:14:00.701Z,86.60
2018-03-23T03:15:00.705Z,86.30
2018-03-23T03:16:00.702Z,91.60
2018-03-23T03:17:00.707Z,89.10
2018-03-23T03:18:00.709Z,96.10
2018-03-23T03:19:00.715Z,89.70
2018-03-23T03:20:00.718Z,85.60
2018-03-23T03:21:00.720Z,83.90
2018-03-23T03:22:00.732Z,88.20
2018-03-23T03:23:00.736Z,87.10
2018-03-23T03:24:00.715Z,88.60
2018-03-23T03:25:00.746Z,89.80
2018-03-23T03:26:00.727Z,93.50
2018-03-23T03:27:00.734Z,88.40
2018-03-23T03:28:00.732Z,89.60
2018-03-23T03:29:00.742Z,76.30
2018-03-23T03:30:00.743Z,98.20
2018-03-23T03:31:00.748Z,88.00
2018-03-23T03:32:00.747Z,85.30
2018-03-23T03:33:00.757Z,93.60
2018-03-23T03:34:00.751Z,93.10
2018-03-23T03:35:01.755Z,93.20
2018-03-23T03:36:00.750Z,90.60
2018-03-23T03:37:00.805Z,97.50
2018-03-23T03:38:00.754Z,99.40
2018-03-23T03:39:00.791Z,91.90
2018-03-23T03:40:00.768Z,108.00
2018-03-23T03:41:00.767Z,96.40
2018-03-23T03:42:00.768Z,96.40
2018-03-23T03:43:00.776Z,96.30
2018-03-23T03:44:00.778Z,100.80
2018-03-23T03:45:00.782Z,95.00
2018-03-23T03:46:00.798Z,95.10
2018-03-23T03:47:00.794Z,97.40
2018-03-23T03:48:00.795Z,103.90
2018-03-23T03:49:00.786Z,101.30
2018-03-23T03:50:00.790Z,93.40
2018-03-23T03:51:00.797Z,92.90
2018-03-23T03:52:00.798Z,104.30
2018-03-23T03:53:00.823Z,97.00
2018-03-23T03:54:00.801Z,98.10
2018-03-23T03:55:00.810Z,93.30
2018-03-23T03:56:00.805Z,97.30
2018-03-23T03:57:00.810Z,89.00
2018-03-23T03:58:00.821Z,95.70
2018-03-23T03:59:00.823Z,97.80
2018-03-23T04:00:00.828Z,104.30
2018-03-23T04:01:00.829Z,89.50
2018-03-23T04:02:00.820Z,99.40
2018-03-23T04:03:00.840Z,88.80
2018-03-23T04:04:00.822Z,91.60
2018-03-23T04:05:00.827Z,97.90
2018-03-23T04:06:00.846Z,99.00
2018-03-23T04:07:00.836Z,89.70
2018-03-23T04:08:00.843Z,112.20
2018-03-23T04:09:00.847Z,109.10
2018-03-23T04:10:00.841Z,104.10
2018-03-23T04:11:00.852Z,99.80
2018-03-23T04:12:00.866Z,109.20
2018-03-23T04:13:00.857Z,92.30
2018-03-23T04:14:00.857Z,102.90
2018-03-23T04:15:00.870Z,109.40
2018-03-23T04:16:00.860Z,103.50
2018-03-23T04:17:00.877Z,100.80
2018-03-23T04:18:00.863Z,103.50
2018-03-23T04:19:00.873Z,109.80
2018-03-23T04:20:00.871Z,102.20
2018-03-23T04:21:00.878Z,107.50
2018-03-23T04:22:00.884Z,110.20
2018-03-23T04:23:00.878Z,110.00
2018-03-23T04:24:00.884Z,99.90
2018-03-23T04:25:00.888Z,102.50
2018-03-23T04:26:00.894Z,109.50
2018-03-23T04:27:00.889Z,102.10
2018-03-23T04:28:00.895Z,108.50
2018-03-23T04:29:00.899Z,111.20
2018-03-23T04:30:00.904Z,110.10
2018-03-23T04:31:00.896Z,112.10
2018-03-23T04:32:00.909Z,108.90
2018-03-23T04:33:00.903Z,115.10
2018-03-23T04:34:00.914Z,126.70
2018-03-23T04:35:00.915Z,119.80
2018-03-23T04:36:00.917Z,111.50
2018-03-23T04:37:00.919Z,114.80
2018-03-23T04:38:00.920Z,109.30
2018-03-23T04:39:00.928Z,119.70
2018-03-23T04:40:01.930Z,117.70
2018-03-23T04:41:00.935Z,121.40
2018-03-23T04:42:00.948Z,120.20
2018-03-23T04:43:00.962Z,107.30
2018-03-23T04:44:00.936Z,112.30
2018-03-23T04:45:00.938Z,112.70
2018-03-23T04:46:00.946Z,112.40
2018-03-23T04:47:00.943Z,115.20
2018-03-23T04:48:00.951Z,111.50
2018-03-23T04:49:00.942Z,103.80
2018-03-23T04:50:00.953Z,119.70
2018-03-23T04:51:00.952Z,110.10
2018-03-23T04:52:00.960Z,106.00
2018-03-23T04:53:00.954Z,107.60
2018-03-23T04:54:02.971Z,112.10
2018-03-23T04:55:00.964Z,112.30
2018-03-23T04:56:00.974Z,117.30
2018-03-23T04:57:00.962Z,122.70
2018-03-23T04:58:00.985Z,120.40
2018-03-23T04:59:00.968Z,116.10
2018-03-23T05:00:00.972Z,122.40
2018-03-23T05:01:00.980Z,136.40
2018-03-23T05:02:00.987Z,125.40
2018-03-23T05:03:00.992Z,122.80
2018-03-23T05:04:00.989Z,132.00
2018-03-23T05:05:00.991Z,135.40
2018-03-23T05:06:01.997Z,125.30
2018-03-23T05:07:01.001Z,140.50
2018-03-23T05:08:01.013Z,140.50
2018-03-23T05:09:00.999Z,134.60
2018-03-23T05:10:01.006Z,148.00
2018-03-23T05:11:01.013Z,146.30
2018-03-23T05:12:01.011Z,149.50
2018-03-23T05:13:01.010Z,147.30
2018-03-23T05:14:01.018Z,156.20
2018-03-23T05:15:01.022Z,155.10
2018-03-23T05:16:01.022Z,153.60
2018-03-23T05:17:01.022Z,155.40
2018-03-23T05:18:01.029Z,155.00
2018-03-23T05:19:01.028Z,148.80
2018-03-23T05:20:01.027Z,139.20
2018-03-23T05:21:01.029Z,165.90
2018-03-23T05:22:01.035Z,151.80
2018-03-23T05:23:01.040Z,180.70
2018-03-23T05:24:01.043Z,161.30
2018-03-23T05:25:01.055Z,166.90
2018-03-23T05:26:01.052Z,173.10
2018-03-23T05:27:01.047Z,194.30
2018-03-23T05:28:01.049Z,203.70
2018-03-23T05:29:01.071Z,212.30
2018-03-23T05:30:01.061Z,191.10
2018-03-23T05:31:01.067Z,190.10
2018-03-23T05:32:01.064Z,175.40
2018-03-23T05:33:01.058Z,236.60
2018-03-23T05:34:01.075Z,219.60
2018-03-23T05:35:01.072Z,223.50
2018-03-23T05:36:01.079Z,174.80
2018-03-23T05:37:01.071Z,209.30
2018-03-23T05:38:01.071Z,219.10
2018-03-23T05:39:01.075Z,209.20
2018-03-23T05:40:01.082Z,209.90
2018-03-23T05:41:01.084Z,204.00
2018-03-23T05:42:02.093Z,229.50
2018-03-23T05:43:01.091Z,254.60
2018-03-23T05:44:01.098Z,264.80
2018-03-23T05:45:01.090Z,229.90
2018-03-23T05:46:01.099Z,244.00
2018-03-23T05:47:01.098Z,299.30
2018-03-23T05:48:01.106Z,238.10
2018-03-23T05:49:01.146Z,263.60
2018-03-23T05:50:01.142Z,324.10
2018-03-23T05:51:01.112Z,267.40
2018-03-23T05:52:01.114Z,311.60
2018-03-23T05:53:01.113Z,287.10
2018-03-23T05:54:01.164Z,285.00
2018-03-23T05:55:01.119Z,311.10
2018-03-23T05:56:01.122Z,246.30
2018-03-23T05:57:01.119Z,290.90
2018-03-23T05:58:01.143Z,299.20
2018-03-23T05:59:01.139Z,352.90
2018-03-23T06:00:01.138Z,320.40
2018-03-23T06:01:01.136Z,338.10
2018-03-23T06:02:01.143Z,296.00
2018-03-23T06:03:01.142Z,266.40
2018-03-23T06:04:01.144Z,329.00
2018-03-23T06:05:01.143Z,317.90
2018-03-23T06:06:01.154Z,253.20
2018-03-23T06:07:01.155Z,302.20
2018-03-23T06:08:01.155Z,305.30
2018-03-23T06:09:01.160Z,297.80
2018-03-23T06:10:01.158Z,318.40
2018-03-23T06:11:01.165Z,362.40
2018-03-23T06:12:01.167Z,324.20
2018-03-23T06:13:01.172Z,323.50
2018-03-23T06:14:01.174Z,391.10
2018-03-23T06:15:01.174Z,319.90
2018-03-23T06:16:01.174Z,297.90
2018-03-23T06:17:01.172Z,310.50
2018-03-23T06:18:01.186Z,287.60
2018-03-23T06:19:01.177Z,332.10
2018-03-23T06:20:01.183Z,343.40
2018-03-23T06:21:01.181Z,347.40
2018-03-23T06:22:01.194Z,394.80
2018-03-23T06:23:01.189Z,390.30
2018-03-23T06:24:01.196Z,351.50
2018-03-23T06:25:01.193Z,454.80
2018-03-23T06:26:01.197Z,425.60
2018-03-23T06:27:01.205Z,413.40
2018-03-23T06:28:01.223Z,285.20
2018-03-23T06:29:01.225Z,467.10
2018-03-23T06:30:01.214Z,353.50
2018-03-23T06:31:01.211Z,381.50
2018-03-23T06:32:01.231Z,412.50
2018-03-23T06:33:01.216Z,438.20
2018-03-23T06:34:02.226Z,435.10
2018-03-23T06:35:01.221Z,441.20
2018-03-23T06:36:01.228Z,388.10
2018-03-23T06:37:01.225Z,428.70
2018-03-23T06:38:02.299Z,394.90
2018-03-23T06:39:01.236Z,416.00
2018-03-23T06:40:01.287Z,431.70
2018-03-23T06:41:01.238Z,390.30
2018-03-23T06:42:01.299Z,462.10
2018-03-23T06:43:01.239Z,451.50
2018-03-23T06:44:01.317Z,456.30
2018-03-23T06:45:01.247Z,403.90
2018-03-23T06:46:01.281Z,356.10
2018-03-23T06:47:01.281Z,375.00
2018-03-23T06:48:02.324Z,358.70
2018-03-23T06:49:01.256Z,430.10
2018-03-23T06:50:01.265Z,393.10
2018-03-23T06:51:01.259Z,405.90
2018-03-23T06:52:01.282Z,405.40
2018-03-23T06:53:01.267Z,381.70
2018-03-23T06:54:01.271Z,348.30
2018-03-23T06:55:01.265Z,337.50
2018-03-23T06:56:01.273Z,359.00
2018-03-23T06:57:01.273Z,360.40
2018-03-23T06:58:01.284Z,373.60
2018-03-23T06:59:01.285Z,326.40
2018-03-23T07:00:01.294Z,334.80
2018-03-23T07:01:01.283Z,335.60
2018-03-23T07:02:01.316Z,347.90
2018-03-23T07:03:01.289Z,328.30
2018-03-23T07:04:01.298Z,339.00
2018-03-23T07:05:01.302Z,318.40
2018-03-23T07:06:01.314Z,324.80
2018-03-23T07:07:01.301Z,329.40
2018-03-23T07:08:01.353Z,293.20
2018-03-23T07:09:01.306Z,284.00
2018-03-23T07:10:02.318Z,286.80
2018-03-23T07:11:01.364Z,305.40
2018-03-23T07:12:01.315Z,299.30
2018-03-23T07:13:01.313Z,291.00
2018-03-23T07:14:01.384Z,282.60
2018-03-23T07:15:01.341Z,287.90
2018-03-23T07:16:01.379Z,272.60
2018-03-23T07:17:01.324Z,264.30
2018-03-23T07:18:01.326Z,265.60
2018-03-23T07:19:01.337Z,271.40
2018-03-23T07:20:01.333Z,267.50
2018-03-23T07:21:01.412Z,274.40
2018-03-23T07:22:01.346Z,273.30
2018-03-23T07:23:01.424Z,259.60
2018-03-23T07:24:01.360Z,232.10
2018-03-23T07:25:01.442Z,231.40
2018-03-23T07:26:01.354Z,224.90
2018-03-23T07:27:01.454Z,225.00
2018-03-23T07:28:01.357Z,218.50
2018-03-23T07:29:01.465Z,217.60
2018-03-23T07:30:01.363Z,220.00
2018-03-23T07:31:01.385Z,221.30
2018-03-23T07:32:01.367Z,221.30
2018-03-23T07:33:01.394Z,218.20
2018-03-23T07:34:01.368Z,202.80
2018-03-23T07:35:01.406Z,211.00
2018-03-23T07:36:01.376Z,198.80
2018-03-23T07:37:01.419Z,202.10
2018-03-23T07:38:01.382Z,201.70
2018-03-23T07:39:01.446Z,178.30
2018-03-23T07:40:01.388Z,203.30
2018-03-23T07:41:01.459Z,189.20
2018-03-23T07:42:01.404Z,181.20
2018-03-23T07:43:01.483Z,184.30
2018-03-23T07:44:01.395Z,181.00
2018-03-23T07:45:01.517Z,172.20
2018-03-23T07:46:01.407Z,180.10
2018-03-23T07:47:01.457Z,173.10
2018-03-23T07:48:01.404Z,170.80
2018-03-23T07:49:01.471Z,180.80
2018-03-23T07:50:01.461Z,172.20
2018-03-23T07:51:01.485Z,169.00
2018-03-23T07:52:01.417Z,175.80
2018-03-23T07:53:01.499Z,187.80
2018-03-23T07:54:01.426Z,175.30
2018-03-23T07:55:01.509Z,195.10
2018-03-23T07:56:01.432Z,187.70
2018-03-23T07:57:01.528Z,186.30
2018-03-23T07:58:01.430Z,189.00
2018-03-23T07:59:01.596Z,180.20
2018-03-23T08:00:01.440Z,178.80
2018-03-23T08:01:01.441Z,178.90
2018-03-23T08:02:01.444Z,156.60
2018-03-23T08:03:01.453Z,147.80
2018-03-23T08:04:01.447Z,146.70
2018-03-23T08:05:01.471Z,149.50
2018-03-23T08:06:01.453Z,147.10
2018-03-23T08:07:01.459Z,141.00
2018-03-23T08:08:01.464Z,149.90
2018-03-23T08:09:01.467Z,137.00
2018-03-23T08:10:01.462Z,138.70
2018-03-23T08:11:01.477Z,133.10
2018-03-23T08:12:01.472Z,134.70
2018-03-23T08:13:01.473Z,134.00
2018-03-23T08:14:01.472Z,130.00
2018-03-23T08:15:01.483Z,123.00
2018-03-23T08:16:01.489Z,123.50
2018-03-23T08:17:02.492Z,124.60
2018-03-23T08:18:01.480Z,114.40
2018-03-23T08:19:01.494Z,108.40
2018-03-23T08:20:01.492Z,107.20
2018-03-23T08:21:01.501Z,110.20
2018-03-23T08:22:01.497Z,104.70
2018-03-23T08:23:01.509Z,96.90
2018-03-23T08:24:01.492Z,90.80
2018-03-23T08:25:01.508Z,93.70
2018-03-23T08:26:01.505Z,94.80
2018-03-23T08:27:01.508Z,89.20
2018-03-23T08:28:01.516Z,82.00
2018-03-23T08:29:01.514Z,77.10
2018-03-23T08:30:01.575Z,80.80
2018-03-23T08:31:01.521Z,86.40
2018-03-23T08:32:01.594Z,87.10
2018-03-23T08:33:01.526Z,77.70
2018-03-23T08:34:02.639Z,74.70
2018-03-23T08:35:01.534Z,74.40
2018-03-23T08:36:01.933Z,75.30
2018-03-23T08:37:01.527Z,74.10
2018-03-23T08:38:01.635Z,74.40
2018-03-23T08:39:01.543Z,74.30
2018-03-23T08:40:02.567Z,71.20
2018-03-23T08:41:01.558Z,70.10
2018-03-23T08:42:01.661Z,73.40
2018-03-23T08:43:01.542Z,76.90
2018-03-23T08:44:01.620Z,78.40
2018-03-23T08:45:01.577Z,71.70
2018-03-23T08:46:01.586Z,71.40
2018-03-23T08:47:01.562Z,68.30
2018-03-23T08:48:01.632Z,68.70
2018-03-23T08:49:01.560Z,71.40
2018-03-23T08:50:01.612Z,77.40
2018-03-23T08:51:01.564Z,74.00
2018-03-23T08:52:01.623Z,66.50
2018-03-23T08:53:01.576Z,66.30
2018-03-23T08:54:01.644Z,68.30
2018-03-23T08:55:01.574Z,64.10
2018-03-23T08:56:01.650Z,74.20
2018-03-23T08:57:01.588Z,67.90
2018-03-23T08:58:01.666Z,59.80
2018-03-23T08:59:01.604Z,67.10
2018-03-23T09:00:01.676Z,63.70
2018-03-23T09:01:01.593Z,57.10
2018-03-23T09:02:01.728Z,53.20
2018-03-23T09:03:01.595Z,56.60
2018-03-23T09:04:01.702Z,55.80
2018-03-23T09:05:01.606Z,57.50
2018-03-23T09:06:01.714Z,53.80
2018-03-23T09:07:01.617Z,48.60
2018-03-23T09:08:01.646Z,56.60
2018-03-23T09:09:01.611Z,51.00
2018-03-23T09:10:01.640Z,54.50
2018-03-23T09:11:01.629Z,56.50
2018-03-23T09:12:01.656Z,50.90
2018-03-23T09:13:01.627Z,52.70
2018-03-23T09:14:01.665Z,57.70
2018-03-23T09:15:01.632Z,55.00
2018-03-23T09:16:01.679Z,51.40
2018-03-23T09:17:01.637Z,50.80
2018-03-23T09:18:01.693Z,52.00
2018-03-23T09:19:01.644Z,51.40
2018-03-23T09:20:01.719Z,51.50
2018-03-23T09:21:01.642Z,57.90
2018-03-23T09:22:01.726Z,57.00
2018-03-23T09:23:01.651Z,56.00
2018-03-23T09:24:01.735Z,61.00
2018-03-23T09:25:01.663Z,59.70
2018-03-23T09:26:01.746Z,61.80
2018-03-23T09:27:01.664Z,58.90
2018-03-23T09:28:02.684Z,63.90
2018-03-23T09:29:01.664Z,57.20
2018-03-23T09:30:01.789Z,57.60
2018-03-23T09:31:01.674Z,63.60
2018-03-23T09:32:01.690Z,61.20
2018-03-23T09:33:01.687Z,62.70
2018-03-23T09:34:01.711Z,62.90
2018-03-23T09:35:01.740Z,62.10
2018-03-23T09:36:01.718Z,54.80
2018-03-23T09:37:01.700Z,58.40
2018-03-23T09:38:01.730Z,57.50
2018-03-23T09:39:01.703Z,54.60
2018-03-23T09:40:01.744Z,52.80
2018-03-23T09:41:01.702Z,58.70
2018-03-23T09:42:01.756Z,52.40
2018-03-23T09:43:01.703Z,57.20
2018-03-23T09:44:01.770Z,55.80
2018-03-23T09:45:01.714Z,61.30
2018-03-23T09:46:01.786Z,55.40
2018-03-23T09:47:01.715Z,54.40
2018-03-23T09:48:01.827Z,51.50
2018-03-23T09:49:01.723Z,52.00
2018-03-23T09:50:01.822Z,49.20
2018-03-23T09:51:01.739Z,47.50
2018-03-23T09:52:01.867Z,51.70
2018-03-23T09:53:01.757Z,45.70
2018-03-23T09:54:01.846Z,50.30
2018-03-23T09:55:01.742Z,47.00
2018-03-23T09:56:01.857Z,48.20
2018-03-23T09:57:01.765Z,44.80
2018-03-23T09:58:01.768Z,46.40
2018-03-23T09:59:01.746Z,44.20
2018-03-23T10:00:01.780Z,46.30
2018-03-23T10:01:01.770Z,45.50
2018-03-23T10:02:01.794Z,45.30
2018-03-23T10:03:01.799Z,44.90
2018-03-23T10:04:01.920Z,44.10
2018-03-23T10:05:01.788Z,44.90
2018-03-23T10:06:02.852Z,45.30
2018-03-23T10:07:01.795Z,47.50
2018-03-23T10:08:02.856Z,45.70
2018-03-23T10:09:01.779Z,40.40
2018-03-23T10:10:01.849Z,39.60
2018-03-23T10:11:01.787Z,45.80
2018-03-23T10:12:01.860Z,39.40
2018-03-23T10:13:01.786Z,40.60
2018-03-23T10:14:01.892Z,37.70
2018-03-23T10:15:01.814Z,34.00
2018-03-23T10:16:01.885Z,38.20
2018-03-23T10:17:01.797Z,35.20
2018-03-23T10:18:01.803Z,32.30
2018-03-23T10:19:01.802Z,33.50
2018-03-23T10:20:01.813Z,30.90
2018-03-23T10:21:01.869Z,32.30
2018-03-23T10:22:02.816Z,30.30
2018-03-23T10:23:01.818Z,35.10
2018-03-23T10:24:01.820Z,29.90
2018-03-23T10:25:01.828Z,34.50
2018-03-23T10:26:01.832Z,33.70
2018-03-23T10:27:01.826Z,31.00
2018-03-23T10:28:01.856Z,32.20
2018-03-23T10:29:01.883Z,36.00
2018-03-23T10:30:01.841Z,36.80
2018-03-23T10:31:01.842Z,39.80
2018-03-23T10:32:01.842Z,32.40
2018-03-23T10:33:01.843Z,33.90
2018-03-23T10:34:01.861Z,35.00
2018-03-23T10:35:02.155Z,34.80
2018-03-23T10:36:01.859Z,29.30
2018-03-23T10:37:01.860Z,31.80
2018-03-23T10:38:01.858Z,29.90
2018-03-23T10:39:01.941Z,30.80
2018-03-23T10:40:01.879Z,32.40
2018-03-23T10:41:01.877Z,32.70
2018-03-23T10:42:01.870Z,42.90
2018-03-23T10:43:01.893Z,34.80
2018-03-23T10:44:01.879Z,34.50
2018-03-23T10:45:01.881Z,37.60
2018-03-23T10:46:01.887Z,32.40
2018-03-23T10:47:01.886Z,30.80
2018-03-23T10:48:01.889Z,36.60
2018-03-23T10:49:01.891Z,31.10
2018-03-23T10:50:02.221Z,35.00
2018-03-23T10:51:01.901Z,28.40
2018-03-23T10:52:01.930Z,30.90
2018-03-23T10:53:01.913Z,35.10
2018-03-23T10:54:01.946Z,34.00
2018-03-23T10:55:01.905Z,34.10
2018-03-23T10:56:01.926Z,34.00
2018-03-23T10:57:01.920Z,32.20
2018-03-23T10:58:01.925Z,35.20
2018-03-23T10:59:01.929Z,31.00
2018-03-23T11:00:01.962Z,34.80
2018-03-23T11:01:01.928Z,32.10
2018-03-23T11:02:01.958Z,31.40
2018-03-23T11:03:01.944Z,32.40
2018-03-23T11:04:02.952Z,37.70
2018-03-23T11:05:01.949Z,30.30
2018-03-23T11:06:01.948Z,36.80
2018-03-23T11:07:01.958Z,34.40
2018-03-23T11:08:01.967Z,40.70
2018-03-23T11:09:01.953Z,39.00
2018-03-23T11:10:01.990Z,40.50
2018-03-23T11:11:01.962Z,35.70
2018-03-23T11:12:01.965Z,38.30
2018-03-23T11:13:01.972Z,45.70
2018-03-23T11:14:01.976Z,43.70
2018-03-23T11:15:01.972Z,38.00
2018-03-23T11:16:01.975Z,37.70
2018-03-23T11:17:01.990Z,41.30
2018-03-23T11:18:01.984Z,40.70
2018-03-23T11:19:01.983Z,39.40
2018-03-23T11:20:04.014Z,38.60
2018-03-23T11:21:01.987Z,43.30
2018-03-23T11:22:02.004Z,42.90
2018-03-23T11:23:02.019Z,43.90
2018-03-23T11:24:02.003Z,43.00
2018-03-23T11:25:02.057Z,39.40
2018-03-23T11:26:02.045Z,46.90
2018-03-23T11:27:02.062Z,43.10
2018-03-23T11:28:02.050Z,41.70
2018-03-23T11:29:02.077Z,43.70
2018-03-23T11:30:02.014Z,36.90
2018-03-23T11:31:02.034Z,40.20
2018-03-23T11:32:02.019Z,43.60
2018-03-23T11:33:02.100Z,49.40
2018-03-23T11:34:02.027Z,44.70
2018-03-23T11:35:02.115Z,41.70
2018-03-23T11:36:02.034Z,44.90
2018-03-23T11:37:02.164Z,38.10
2018-03-23T11:38:02.087Z,44.80
2018-03-23T11:39:02.155Z,41.60
2018-03-23T11:40:02.052Z,40.00
2018-03-23T11:41:02.159Z,38.00
2018-03-23T11:42:02.052Z,38.70
2018-03-23T11:43:02.173Z,35.00
2018-03-23T11:44:02.063Z,42.30
2018-03-23T11:45:02.083Z,35.40
2018-03-23T11:46:02.097Z,35.10
2018-03-23T11:47:02.137Z,37.10
2018-03-23T11:48:02.106Z,38.10
2018-03-23T11:49:02.117Z,35.20
2018-03-23T11:50:02.083Z,33.00
2018-03-23T11:51:02.129Z,36.10
2018-03-23T11:52:02.096Z,41.10
2018-03-23T11:53:02.139Z,32.10
2018-03-23T11:54:02.110Z,33.60
2018-03-23T11:55:02.157Z,36.30
2018-03-23T11:56:02.107Z,34.00
2018-03-23T11:57:02.171Z,36.40
2018-03-23T11:58:02.106Z,37.00
2018-03-23T11:59:02.298Z,35.40
2018-03-23T12:00:02.122Z,36.00
2018-03-23T12:01:02.199Z,32.70
2018-03-23T12:02:02.161Z,34.20
2018-03-23T12:03:02.216Z,38.30
2018-03-23T12:04:02.134Z,32.70
2018-03-23T12:05:04.177Z,33.50
2018-03-23T12:06:02.168Z,34.40
2018-03-23T12:07:02.244Z,32.30
2018-03-23T12:08:02.146Z,37.80
2018-03-23T12:09:02.253Z,37.80
2018-03-23T12:10:02.155Z,35.10
2018-03-23T12:11:02.268Z,40.20
2018-03-23T12:12:02.157Z,38.40
2018-03-23T12:13:02.177Z,39.90
2018-03-23T12:14:02.165Z,35.30
2018-03-23T12:15:02.194Z,39.40
2018-03-23T12:16:02.174Z,41.40
2018-03-23T12:17:02.202Z,35.50
2018-03-23T12:18:02.176Z,40.40
2018-03-23T12:19:02.219Z,37.30
2018-03-23T12:20:02.195Z,34.60
2018-03-23T12:21:02.224Z,38.70
2018-03-23T12:22:02.190Z,38.30
2018-03-23T12:23:02.245Z,35.70
2018-03-23T12:24:02.212Z,32.70
2018-03-23T12:25:02.208Z,43.40
2018-03-23T12:26:02.209Z,39.00
2018-03-23T12:27:02.273Z,43.40
2018-03-23T12:28:02.211Z,36.50
2018-03-23T12:29:02.287Z,39.80
2018-03-23T12:30:02.223Z,42.50
2018-03-23T12:31:02.301Z,39.40
2018-03-23T12:32:02.239Z,43.30
2018-03-23T12:33:02.237Z,51.90
2018-03-23T12:34:02.237Z,43.50
2018-03-23T12:35:02.243Z,36.50
2018-03-23T12:36:02.254Z,41.00
2018-03-23T12:37:02.338Z,40.50
2018-03-23T12:38:02.306Z,39.90
2018-03-23T12:39:02.350Z,38.40
2018-03-23T12:40:02.256Z,36.90
2018-03-23T12:41:02.261Z,39.50
2018-03-23T12:42:02.266Z,38.30
2018-03-23T12:43:02.380Z,36.00
2018-03-23T12:44:02.282Z,37.80